Boa Vista の空港の天気 - METARとTAF

ボア・ヴィスタ国際空港 ( SBBV / BVB ) - ブラジル ロライマ州、Boa Vista
飛行場実況気象(Metar)
観測時間06/16 05:00 AMT (06/16 09:00 UTC)
風向・風速南東 3m/s
視程8000m
天気現象弱い雨
少しの雲 雲底高度 460m
全天の4割程度の雲 雲底高度 760m
全天の8割程度の雲 雲底高度 2440m
気温23℃
湿度89%
気圧1014hPa
METARSBBV 160900Z 13005KT 8000 -RA FEW015 SCT025 BKN080 23/21 Q1014
過去の天気等 Google飛行場航空写真 Wunderground天気予報

過去48時間のMETAR

飛行場予報(TAF)
発表時間: 6/15 23:15 AMT (6/16 03:15 UTC)
予報対象時間: 16日2時 AMT ~ 17日2時 AMT
風向・風速南西 3m/s
視程10km以上
全天の4割程度の雲 雲底高度 460m
16日3時 AMT ~ 16日8時 AMT に 確率 40% で一時的に
風向・風速東 5m/s
視程4000m
天気現象しゅう雨
全天の8割程度の雲 雲底高度 300m
少しの塔状積雲 雲底高度 610m
16日8時 AMT ~ 16日11時 AMT に徐々に
16日14時 AMT から 確率 40% で
風向・風速東北東 4m/s
視程7000m
天気現象
全天の8割程度の雲 雲底高度 400m
16日17時 AMT ~ 16日19時 AMT に徐々に
風向・風速東 3m/s
全天の4割程度の雲 雲底高度 760m
16日22時 AMT ~ 16日24時 AMT に徐々に
風向・風速西 3m/s
少しの雲 雲底高度 760m
TAF SBBV 160315Z 1606/1706 22005KT 9999 SCT015 TN25/1609Z TX30/1618Z
PROB40 TEMPO 1607/1612 10010KT 4000 SHRA BKN010 FEW020TCU
BECMG 1612/1615 1 7007KT BKN017 FEW025TCU
PROB40 1618/1621 06007KT 7000 RA BKN013
BECMG 1621/ 1623 10005KT SCT025
BECMG 1702/1704 26005KT FEW025 RMK PGZ